sensor_id;sensor_type;location;lat;lon;timestamp;temperature;humidity
20428;DHT22;10373;49.768;18.302;2022-08-21T11:37:10;17.90;99.90
20428;DHT22;10373;49.768;18.302;2022-08-21T11:40:04;17.90;99.90
20428;DHT22;10373;49.768;18.302;2022-08-21T11:45:34;18.00;99.90
20428;DHT22;10373;49.768;18.302;2022-08-21T11:48:37;18.00;99.90
20428;DHT22;10373;49.768;18.302;2022-08-21T11:51:13;17.90;99.90
20428;DHT22;10373;49.768;18.302;2022-08-21T11:54:08;17.90;99.90
20428;DHT22;10373;49.768;18.302;2022-08-21T11:56:40;17.90;99.90
20428;DHT22;10373;49.768;18.302;2022-08-21T11:59:17;18.00;99.90
20428;DHT22;10373;49.768;18.302;2022-08-21T12:01:48;18.00;99.90
20428;DHT22;10373;49.768;18.302;2022-08-21T12:04:36;18.10;99.90
20428;DHT22;10373;49.768;18.302;2022-08-21T12:07:17;18.20;99.90
20428;DHT22;10373;49.768;18.302;2022-08-21T12:09:55;17.90;99.90
20428;DHT22;10373;49.768;18.302;2022-08-21T12:12:32;18.00;99.90
20428;DHT22;10373;49.768;18.302;2022-08-21T12:15:15;17.70;99.90
20428;DHT22;10373;49.768;18.302;2022-08-21T12:22:54;17.70;99.90
20428;DHT22;10373;49.768;18.302;2022-08-21T12:25:21;17.60;99.90
20428;DHT22;10373;49.768;18.302;2022-08-21T12:27:52;17.80;99.90
20428;DHT22;10373;49.768;18.302;2022-08-21T12:30:33;17.90;99.90
20428;DHT22;10373;49.768;18.302;2022-08-21T12:33:00;18.00;99.90
20428;DHT22;10373;49.768;18.302;2022-08-21T12:35:38;18.00;99.90
20428;DHT22;10373;49.768;18.302;2022-08-21T12:40:52;17.80;99.90
20428;DHT22;10373;49.768;18.302;2022-08-21T12:43:42;17.70;99.90
20428;DHT22;10373;49.768;18.302;2022-08-21T12:46:06;17.60;99.90
20428;DHT22;10373;49.768;18.302;2022-08-21T12:48:49;17.50;99.90
20428;DHT22;10373;49.768;18.302;2022-08-21T12:51:36;17.40;99.90
20428;DHT22;10373;49.768;18.302;2022-08-21T12:54:03;17.40;99.90
20428;DHT22;10373;49.768;18.302;2022-08-21T12:56:31;17.40;99.90
20428;DHT22;10373;49.768;18.302;2022-08-21T12:59:03;17.40;99.90
20428;DHT22;10373;49.768;18.302;2022-08-21T13:01:34;17.20;99.90
20428;DHT22;10373;49.768;18.302;2022-08-21T13:04:07;17.30;99.90
20428;DHT22;10373;49.768;18.302;2022-08-21T13:06:39;17.20;99.90
20428;DHT22;10373;49.768;18.302;2022-08-21T13:09:08;17.50;99.90
20428;DHT22;10373;49.768;18.302;2022-08-21T13:11:35;17.40;99.90
20428;DHT22;10373;49.768;18.302;2022-08-21T13:14:03;17.50;99.90
20428;DHT22;10373;49.768;18.302;2022-08-21T13:16:30;17.50;99.90
20428;DHT22;10373;49.768;18.302;2022-08-21T13:21:28;17.60;99.90
20428;DHT22;10373;49.768;18.302;2022-08-21T13:24:05;17.70;99.90
20428;DHT22;10373;49.768;18.302;2022-08-21T13:26:31;17.70;99.90
20428;DHT22;10373;49.768;18.302;2022-08-21T13:29:07;17.90;99.90
20428;DHT22;10373;49.768;18.302;2022-08-21T13:31:33;17.90;99.90
20428;DHT22;10373;49.768;18.302;2022-08-21T13:33:59;17.80;99.90
20428;DHT22;10373;49.768;18.302;2022-08-21T13:36:29;17.80;99.90
20428;DHT22;10373;49.768;18.302;2022-08-21T13:38:55;17.80;99.90
20428;DHT22;10373;49.768;18.302;2022-08-21T13:41:28;17.70;99.90
20428;DHT22;10373;49.768;18.302;2022-08-21T13:44:13;17.70;99.90
20428;DHT22;10373;49.768;18.302;2022-08-21T13:46:39;17.70;99.90
20428;DHT22;10373;49.768;18.302;2022-08-21T13:49:06;17.70;99.90
20428;DHT22;10373;49.768;18.302;2022-08-21T13:51:35;17.60;99.90
20428;DHT22;10373;49.768;18.302;2022-08-21T13:54:01;17.50;99.90
20428;DHT22;10373;49.768;18.302;2022-08-21T13:58:56;17.50;99.90
20428;DHT22;10373;49.768;18.302;2022-08-21T14:01:36;17.40;99.90
20428;DHT22;10373;49.768;18.302;2022-08-21T14:04:06;17.20;99.90
20428;DHT22;10373;49.768;18.302;2022-08-21T14:06:35;17.10;99.90
20428;DHT22;10373;49.768;18.302;2022-08-21T14:09:09;17.10;99.90
20428;DHT22;10373;49.768;18.302;2022-08-21T14:11:36;17.00;99.90
20428;DHT22;10373;49.768;18.302;2022-08-21T14:17:13;17.20;99.90
20428;DHT22;10373;49.768;18.302;2022-08-21T14:19:45;17.10;99.90
20428;DHT22;10373;49.768;18.302;2022-08-21T14:27:56;17.30;99.90
20428;DHT22;10373;49.768;18.302;2022-08-21T14:30:31;17.30;99.90
20428;DHT22;10373;49.768;18.302;2022-08-21T14:32:59;17.40;99.90
20428;DHT22;10373;49.768;18.302;2022-08-21T14:35:25;17.30;99.90
20428;DHT22;10373;49.768;18.302;2022-08-21T14:37:52;17.40;99.90
20428;DHT22;10373;49.768;18.302;2022-08-21T14:40:20;17.30;99.90
20428;DHT22;10373;49.768;18.302;2022-08-21T14:42:47;17.40;99.90
20428;DHT22;10373;49.768;18.302;2022-08-21T14:45:16;17.30;99.90
20428;DHT22;10373;49.768;18.302;2022-08-21T14:47:42;17.30;99.90
20428;DHT22;10373;49.768;18.302;2022-08-21T14:50:10;17.40;99.90
20428;DHT22;10373;49.768;18.302;2022-08-21T14:52:57;17.50;99.90
20428;DHT22;10373;49.768;18.302;2022-08-21T14:55:23;17.30;99.90
20428;DHT22;10373;49.768;18.302;2022-08-21T14:57:50;17.10;99.90
20428;DHT22;10373;49.768;18.302;2022-08-21T15:00:20;17.10;99.90
20428;DHT22;10373;49.768;18.302;2022-08-21T15:02:49;17.00;99.90
20428;DHT22;10373;49.768;18.302;2022-08-21T15:05:15;17.00;99.90
20428;DHT22;10373;49.768;18.302;2022-08-21T15:07:41;17.00;99.90
20428;DHT22;10373;49.768;18.302;2022-08-21T15:10:08;17.10;99.90
20428;DHT22;10373;49.768;18.302;2022-08-21T15:12:34;17.20;99.90
20428;DHT22;10373;49.768;18.302;2022-08-21T15:14:59;17.30;99.90
20428;DHT22;10373;49.768;18.302;2022-08-21T15:17:25;17.40;99.90
20428;DHT22;10373;49.768;18.302;2022-08-21T15:19:51;17.50;99.90
20428;DHT22;10373;49.768;18.302;2022-08-21T15:22:17;17.60;99.90
20428;DHT22;10373;49.768;18.302;2022-08-21T15:24:43;17.70;99.90
20428;DHT22;10373;49.768;18.302;2022-08-21T15:27:38;17.50;99.90
20428;DHT22;10373;49.768;18.302;2022-08-21T15:32:52;17.40;99.90
20428;DHT22;10373;49.768;18.302;2022-08-21T15:35:18;17.30;99.90
20428;DHT22;10373;49.768;18.302;2022-08-21T15:37:43;17.40;99.90
20428;DHT22;10373;49.768;18.302;2022-08-21T15:40:10;17.50;99.90
20428;DHT22;10373;49.768;18.302;2022-08-21T15:42:39;17.50;99.90
20428;DHT22;10373;49.768;18.302;2022-08-21T15:45:07;17.60;99.90
20428;DHT22;10373;49.768;18.302;2022-08-21T15:47:36;17.60;99.90
20428;DHT22;10373;49.768;18.302;2022-08-21T15:50:06;17.40;99.90
20428;DHT22;10373;49.768;18.302;2022-08-21T15:52:32;17.40;99.90
20428;DHT22;10373;49.768;18.302;2022-08-21T15:54:58;17.50;99.90
20428;DHT22;10373;49.768;18.302;2022-08-21T15:57:25;17.40;99.90
20428;DHT22;10373;49.768;18.302;2022-08-21T15:59:55;17.10;99.90
20428;DHT22;10373;49.768;18.302;2022-08-21T16:02:24;17.10;99.90
20428;DHT22;10373;49.768;18.302;2022-08-21T16:04:51;17.20;99.90
20428;DHT22;10373;49.768;18.302;2022-08-21T16:07:17;17.20;99.90
20428;DHT22;10373;49.768;18.302;2022-08-21T16:09:43;17.20;99.90
20428;DHT22;10373;49.768;18.302;2022-08-21T16:12:13;17.20;99.90
20428;DHT22;10373;49.768;18.302;2022-08-21T16:14:42;17.20;99.90
20428;DHT22;10373;49.768;18.302;2022-08-21T16:17:08;17.00;99.90
20428;DHT22;10373;49.768;18.302;2022-08-21T16:19:35;17.00;99.90
20428;DHT22;10373;49.768;18.302;2022-08-21T16:22:02;16.90;99.90
20428;DHT22;10373;49.768;18.302;2022-08-21T16:24:28;17.00;99.90
20428;DHT22;10373;49.768;18.302;2022-08-21T16:26:54;17.10;99.90
20428;DHT22;10373;49.768;18.302;2022-08-21T16:29:20;17.10;99.90
20428;DHT22;10373;49.768;18.302;2022-08-21T16:31:47;17.10;99.90
20428;DHT22;10373;49.768;18.302;2022-08-21T16:34:15;17.20;99.90
20428;DHT22;10373;49.768;18.302;2022-08-21T16:36:42;17.30;99.90
20428;DHT22;10373;49.768;18.302;2022-08-21T16:39:07;17.30;99.90
20428;DHT22;10373;49.768;18.302;2022-08-21T16:41:34;17.30;99.90
20428;DHT22;10373;49.768;18.302;2022-08-21T16:44:02;17.40;99.90
20428;DHT22;10373;49.768;18.302;2022-08-21T16:46:33;17.40;99.90
20428;DHT22;10373;49.768;18.302;2022-08-21T16:48:59;17.50;99.90
20428;DHT22;10373;49.768;18.302;2022-08-21T16:51:27;17.60;99.90
20428;DHT22;10373;49.768;18.302;2022-08-21T16:53:55;17.60;99.90
20428;DHT22;10373;49.768;18.302;2022-08-21T16:56:23;17.70;99.90
20428;DHT22;10373;49.768;18.302;2022-08-21T16:58:50;17.70;99.90
20428;DHT22;10373;49.768;18.302;2022-08-21T17:01:21;17.60;99.90
20428;DHT22;10373;49.768;18.302;2022-08-21T17:03:49;17.50;99.90
20428;DHT22;10373;49.768;18.302;2022-08-21T17:06:20;17.60;99.90
20428;DHT22;10373;49.768;18.302;2022-08-21T17:08:47;17.70;99.90
20428;DHT22;10373;49.768;18.302;2022-08-21T17:11:33;17.50;99.90
20428;DHT22;10373;49.768;18.302;2022-08-21T17:14:01;17.60;99.90
20428;DHT22;10373;49.768;18.302;2022-08-21T17:16:28;17.70;99.90
20428;DHT22;10373;49.768;18.302;2022-08-21T17:18:54;17.70;99.90
20428;DHT22;10373;49.768;18.302;2022-08-21T17:21:21;17.80;99.90
20428;DHT22;10373;49.768;18.302;2022-08-21T17:23:47;17.80;99.90
20428;DHT22;10373;49.768;18.302;2022-08-21T17:26:15;17.80;99.90
20428;DHT22;10373;49.768;18.302;2022-08-21T17:28:43;17.70;99.90
20428;DHT22;10373;49.768;18.302;2022-08-21T17:31:10;17.80;99.90
20428;DHT22;10373;49.768;18.302;2022-08-21T17:33:43;17.80;99.90
20428;DHT22;10373;49.768;18.302;2022-08-21T17:36:26;17.70;99.90
20428;DHT22;10373;49.768;18.302;2022-08-21T17:38:54;17.70;99.90
20428;DHT22;10373;49.768;18.302;2022-08-21T17:41:21;17.60;99.90
20428;DHT22;10373;49.768;18.302;2022-08-21T17:43:47;17.70;99.90
20428;DHT22;10373;49.768;18.302;2022-08-21T17:46:18;17.50;99.90
20428;DHT22;10373;49.768;18.302;2022-08-21T17:48:44;17.50;99.90
20428;DHT22;10373;49.768;18.302;2022-08-21T17:51:09;17.50;99.90
20428;DHT22;10373;49.768;18.302;2022-08-21T17:53:37;17.50;99.90
20428;DHT22;10373;49.768;18.302;2022-08-21T17:56:03;17.50;99.90
20428;DHT22;10373;49.768;18.302;2022-08-21T17:58:29;17.40;99.90
20428;DHT22;10373;49.768;18.302;2022-08-21T18:00:56;17.40;99.90
20428;DHT22;10373;49.768;18.302;2022-08-21T18:03:22;17.30;99.90
20428;DHT22;10373;49.768;18.302;2022-08-21T18:05:49;17.30;99.90
20428;DHT22;10373;49.768;18.302;2022-08-21T18:08:16;17.40;99.90
20428;DHT22;10373;49.768;18.302;2022-08-21T18:10:46;17.40;99.90
20428;DHT22;10373;49.768;18.302;2022-08-21T18:13:16;17.40;99.90
20428;DHT22;10373;49.768;18.302;2022-08-21T18:15:46;17.30;99.90
20428;DHT22;10373;49.768;18.302;2022-08-21T18:18:13;17.30;99.90
20428;DHT22;10373;49.768;18.302;2022-08-21T18:20:40;17.40;99.90
20428;DHT22;10373;49.768;18.302;2022-08-21T18:23:07;17.50;99.90
20428;DHT22;10373;49.768;18.302;2022-08-21T18:25:33;17.60;99.90
20428;DHT22;10373;49.768;18.302;2022-08-21T18:28:02;17.60;99.90
20428;DHT22;10373;49.768;18.302;2022-08-21T18:30:30;17.60;99.90
20428;DHT22;10373;49.768;18.302;2022-08-21T18:32:59;17.50;99.90
20428;DHT22;10373;49.768;18.302;2022-08-21T18:35:24;17.40;99.90
20428;DHT22;10373;49.768;18.302;2022-08-21T18:37:50;17.40;99.90
20428;DHT22;10373;49.768;18.302;2022-08-21T18:40:16;17.40;99.90
20428;DHT22;10373;49.768;18.302;2022-08-21T18:42:45;17.30;99.90
20428;DHT22;10373;49.768;18.302;2022-08-21T18:45:14;17.20;99.90
20428;DHT22;10373;49.768;18.302;2022-08-21T18:47:44;17.30;99.90
20428;DHT22;10373;49.768;18.302;2022-08-21T18:50:12;17.20;99.90
20428;DHT22;10373;49.768;18.302;2022-08-21T18:52:39;17.20;99.90
20428;DHT22;10373;49.768;18.302;2022-08-21T18:55:06;17.40;99.90
20428;DHT22;10373;49.768;18.302;2022-08-21T18:57:32;17.40;99.90
20428;DHT22;10373;49.768;18.302;2022-08-21T19:00:00;17.30;99.90
20428;DHT22;10373;49.768;18.302;2022-08-21T19:02:30;17.30;99.90
20428;DHT22;10373;49.768;18.302;2022-08-21T19:04:55;17.30;99.90
20428;DHT22;10373;49.768;18.302;2022-08-21T19:07:21;17.40;99.90
20428;DHT22;10373;49.768;18.302;2022-08-21T19:09:47;17.40;99.90
20428;DHT22;10373;49.768;18.302;2022-08-21T19:12:17;17.40;99.90
20428;DHT22;10373;49.768;18.302;2022-08-21T19:14:45;17.50;99.90
20428;DHT22;10373;49.768;18.302;2022-08-21T19:17:12;17.60;99.90
20428;DHT22;10373;49.768;18.302;2022-08-21T19:19:38;17.60;99.90
20428;DHT22;10373;49.768;18.302;2022-08-21T19:22:04;17.60;99.90
20428;DHT22;10373;49.768;18.302;2022-08-21T19:24:29;17.60;99.90
20428;DHT22;10373;49.768;18.302;2022-08-21T19:26:55;17.50;99.90
20428;DHT22;10373;49.768;18.302;2022-08-21T19:29:22;17.50;99.90
20428;DHT22;10373;49.768;18.302;2022-08-21T19:31:47;17.60;99.90
20428;DHT22;10373;49.768;18.302;2022-08-21T19:34:19;17.60;99.90
20428;DHT22;10373;49.768;18.302;2022-08-21T19:36:46;17.60;99.90
20428;DHT22;10373;49.768;18.302;2022-08-21T19:39:12;17.70;99.90
20428;DHT22;10373;49.768;18.302;2022-08-21T19:41:42;17.80;99.90
20428;DHT22;10373;49.768;18.302;2022-08-21T19:44:13;17.80;99.90
20428;DHT22;10373;49.768;18.302;2022-08-21T19:46:41;17.80;99.90
20428;DHT22;10373;49.768;18.302;2022-08-21T19:49:12;17.80;99.90
20428;DHT22;10373;49.768;18.302;2022-08-21T19:51:40;17.80;99.90
20428;DHT22;10373;49.768;18.302;2022-08-21T19:54:13;17.80;99.90
20428;DHT22;10373;49.768;18.302;2022-08-21T19:56:39;17.80;99.90
20428;DHT22;10373;49.768;18.302;2022-08-21T19:59:06;17.90;99.90
20428;DHT22;10373;49.768;18.302;2022-08-21T20:01:31;17.70;99.90
20428;DHT22;10373;49.768;18.302;2022-08-21T20:03:57;17.70;99.90
20428;DHT22;10373;49.768;18.302;2022-08-21T20:06:24;17.80;99.90
20428;DHT22;10373;49.768;18.302;2022-08-21T20:08:51;17.80;99.90
20428;DHT22;10373;49.768;18.302;2022-08-21T20:11:31;17.80;99.90
20428;DHT22;10373;49.768;18.302;2022-08-21T20:13:59;17.90;99.90
20428;DHT22;10373;49.768;18.302;2022-08-21T20:16:25;17.90;99.90
20428;DHT22;10373;49.768;18.302;2022-08-21T20:18:51;17.80;99.90
20428;DHT22;10373;49.768;18.302;2022-08-21T20:21:17;17.70;99.90
20428;DHT22;10373;49.768;18.302;2022-08-21T20:23:43;17.70;99.90
20428;DHT22;10373;49.768;18.302;2022-08-21T20:26:09;17.80;99.90
20428;DHT22;10373;49.768;18.302;2022-08-21T20:28:35;17.80;99.90
20428;DHT22;10373;49.768;18.302;2022-08-21T20:31:02;17.70;99.90
20428;DHT22;10373;49.768;18.302;2022-08-21T20:33:28;17.70;99.90
20428;DHT22;10373;49.768;18.302;2022-08-21T20:35:54;17.80;99.90
20428;DHT22;10373;49.768;18.302;2022-08-21T20:38:20;17.70;99.90
20428;DHT22;10373;49.768;18.302;2022-08-21T20:40:48;17.80;99.90
20428;DHT22;10373;49.768;18.302;2022-08-21T20:43:15;17.70;99.90
20428;DHT22;10373;49.768;18.302;2022-08-21T20:45:42;17.70;99.90
20428;DHT22;10373;49.768;18.302;2022-08-21T20:48:12;17.50;99.90
20428;DHT22;10373;49.768;18.302;2022-08-21T20:50:41;17.50;99.90
20428;DHT22;10373;49.768;18.302;2022-08-21T20:53:33;17.40;99.90
20428;DHT22;10373;49.768;18.302;2022-08-21T20:56:02;17.40;99.90
20428;DHT22;10373;49.768;18.302;2022-08-21T20:58:37;17.50;99.90
20428;DHT22;10373;49.768;18.302;2022-08-21T21:01:07;17.60;99.90
20428;DHT22;10373;49.768;18.302;2022-08-21T21:03:42;17.70;99.90
20428;DHT22;10373;49.768;18.302;2022-08-21T21:06:12;17.80;99.90
20428;DHT22;10373;49.768;18.302;2022-08-21T21:08:40;17.70;99.90
20428;DHT22;10373;49.768;18.302;2022-08-21T21:11:32;17.50;99.90
20428;DHT22;10373;49.768;18.302;2022-08-21T21:14:06;17.60;99.90
20428;DHT22;10373;49.768;18.302;2022-08-21T21:16:46;17.70;99.90
20428;DHT22;10373;49.768;18.302;2022-08-21T21:27:27;17.70;99.90
20428;DHT22;10373;49.768;18.302;2022-08-21T21:29:57;17.70;99.90
20428;DHT22;10373;49.768;18.302;2022-08-21T21:32:26;17.80;99.90
20428;DHT22;10373;49.768;18.302;2022-08-21T21:34:53;17.70;99.90
20428;DHT22;10373;49.768;18.302;2022-08-21T21:37:43;17.60;99.90
20428;DHT22;10373;49.768;18.302;2022-08-21T21:43:39;17.60;99.90
20428;DHT22;10373;49.768;18.302;2022-08-21T21:49:13;17.50;99.90
20428;DHT22;10373;49.768;18.302;2022-08-21T21:54:52;17.40;99.90
20428;DHT22;10373;49.768;18.302;2022-08-21T22:00:09;17.50;99.90
20428;DHT22;10373;49.768;18.302;2022-08-21T22:05:48;17.40;99.90
20428;DHT22;10373;49.768;18.302;2022-08-21T22:14:11;17.10;99.90
20428;DHT22;10373;49.768;18.302;2022-08-21T22:16:39;17.30;99.90
20428;DHT22;10373;49.768;18.302;2022-08-21T22:19:26;17.30;99.90
20428;DHT22;10373;49.768;18.302;2022-08-21T22:21:59;17.30;99.90
20428;DHT22;10373;49.768;18.302;2022-08-21T22:24:31;17.30;99.90
20428;DHT22;10373;49.768;18.302;2022-08-21T22:27:09;17.20;99.90
20428;DHT22;10373;49.768;18.302;2022-08-21T22:32:10;17.20;99.90
20428;DHT22;10373;49.768;18.302;2022-08-21T22:34:36;17.20;99.90
20428;DHT22;10373;49.768;18.302;2022-08-21T22:37:09;17.00;99.90
20428;DHT22;10373;49.768;18.302;2022-08-21T22:39:41;16.90;99.90
20428;DHT22;10373;49.768;18.302;2022-08-21T22:42:19;16.90;99.90
20428;DHT22;10373;49.768;18.302;2022-08-21T22:44:51;17.00;99.90
20428;DHT22;10373;49.768;18.302;2022-08-21T22:47:39;16.90;99.90
20428;DHT22;10373;49.768;18.302;2022-08-21T22:53:03;16.80;99.90
20428;DHT22;10373;49.768;18.302;2022-08-21T22:55:41;16.90;99.90
20428;DHT22;10373;49.768;18.302;2022-08-21T23:00:40;17.10;99.90
20428;DHT22;10373;49.768;18.302;2022-08-21T23:03:07;16.90;99.90
20428;DHT22;10373;49.768;18.302;2022-08-21T23:05:35;17.00;99.90
20428;DHT22;10373;49.768;18.302;2022-08-21T23:08:24;16.90;99.90
20428;DHT22;10373;49.768;18.302;2022-08-21T23:10:57;16.90;99.90
20428;DHT22;10373;49.768;18.302;2022-08-21T23:13:28;16.90;99.90
20428;DHT22;10373;49.768;18.302;2022-08-21T23:18:46;16.80;99.90
20428;DHT22;10373;49.768;18.302;2022-08-21T23:21:37;16.80;99.90
20428;DHT22;10373;49.768;18.302;2022-08-21T23:24:34;16.80;99.90
20428;DHT22;10373;49.768;18.302;2022-08-21T23:35:34;16.50;99.90
20428;DHT22;10373;49.768;18.302;2022-08-21T23:41:09;16.60;99.90
20428;DHT22;10373;49.768;18.302;2022-08-21T23:52:25;16.70;99.90
20428;DHT22;10373;49.768;18.302;2022-08-21T23:55:23;16.70;99.90
